Time;durP1;ratioP1;P1;durP2;ratioP2;P2;SDS_P1;SDS_P2;PMS_P1;PMS_P2;Temp;Humidity;BMP_temperature;BMP_pressure;BME280_temperature;BME280_humidity;BME280_pressure;Samples;Min_cycle;Max_cycle;Signal;HPM_P1;HPM_P2
2023/03/04 00:03:51;;;;;;;27.07;9.53;;;;;;;;;;10401444;28;20067;-77
2023/03/04 00:08:56;;;;;;;51.90;15.30;;;;;;;;;;10419121;28;20553;-77
2023/03/04 00:13:59;;;;;;;60.95;19.05;;;;;;;;;;10394312;28;20041;-77
2023/03/04 00:19:02;;;;;;;60.27;18.40;;;;;;;;;;10395366;28;20050;-78
2023/03/04 00:24:07;;;;;;;65.53;19.20;;;;;;;;;;10386881;28;20420;-78
2023/03/04 00:29:09;;;;;;;;;;;;;;;;;;10394022;28;20120;-78
2023/03/04 00:34:12;;;;;;;43.83;14.10;;;;;;;;;;10392682;28;20003;-76
2023/03/04 00:39:16;;;;;;;62.80;20.13;;;;;;;;;;10398615;28;20046;-76
2023/03/04 00:44:19;;;;;;;32.30;11.88;;;;;;;;;;10403068;28;20092;-76
2023/03/04 00:49:21;;;;;;;23.40;7.27;;;;;;;;;;10400609;28;20045;-76
2023/03/04 00:54:31;;;;;;;36.00;12.20;;;;;;;;;;10396791;28;20041;-76
2023/03/04 00:59:34;;;;;;;36.90;12.83;;;;;;;;;;10397492;28;20034;-77
2023/03/04 01:04:37;;;;;;;25.03;9.03;;;;;;;;;;10395362;28;20037;-77
2023/03/04 01:09:41;;;;;;;41.47;12.50;;;;;;;;;;10409633;28;20458;-74
2023/03/04 01:14:45;;;;;;;46.83;15.23;;;;;;;;;;10406066;28;20041;-77
2023/03/04 01:19:47;;;;;;;64.30;19.87;;;;;;;;;;10402695;28;20034;-75
2023/03/04 01:24:51;;;;;;;45.53;13.43;;;;;;;;;;10393621;28;20135;-75
2023/03/04 01:29:54;;;;;;;30.85;10.55;;;;;;;;;;10397456;28;20058;-74
2023/03/04 01:34:56;;;;;;;51.23;13.43;;;;;;;;;;10405968;28;20045;-75
2023/03/04 01:40:00;;;;;;;33.27;10.97;;;;;;;;;;10400223;28;20418;-76
2023/03/04 01:45:03;;;;;;;;;;;;;;;;;;10403873;28;20455;-76
2023/03/04 01:50:17;;;;;;;39.20;12.87;;;;;;;;;;10406714;28;19929;-77
2023/03/04 01:55:22;;;;;;;47.80;14.40;;;;;;;;;;10403031;28;20470;-78
2023/03/04 02:00:36;;;;;;;31.23;10.80;;;;;;;;;;10399602;28;20033;-77
2023/03/04 02:05:48;;;;;;;57.23;18.07;;;;;;;;;;10390966;28;20104;-76
2023/03/04 02:10:54;;;;;;;56.43;18.17;;;;;;;;;;10392995;28;20083;-76
2023/03/04 02:15:56;;;;;;;60.93;19.93;;;;;;;;;;10400052;28;20045;-77
2023/03/04 02:21:04;;;;;;;24.17;9.27;;;;;;;;;;10403855;28;20046;-77
2023/03/04 02:26:11;;;;;;;33.20;13.73;;;;;;;;;;10406209;28;20061;-77
2023/03/04 02:31:23;;;;;;;31.47;9.37;;;;;;;;;;10393400;28;20037;-77
2023/03/04 02:36:26;;;;;;;35.67;12.40;;;;;;;;;;10394788;28;20045;-77
2023/03/04 02:41:31;;;;;;;54.08;15.80;;;;;;;;;;10399769;28;20049;-76
2023/03/04 02:46:33;;;;;;;;;;;;;;;;;;10400348;28;20045;-77
2023/03/04 02:51:36;;;;;;;31.90;12.03;;;;;;;;;;10399298;28;20044;-77
2023/03/04 02:56:44;;;;;;;44.80;14.00;;;;;;;;;;10400723;28;20601;-76
2023/03/04 03:01:47;;;;;;;48.60;14.07;;;;;;;;;;10393057;28;20441;-76
2023/03/04 03:06:50;;;;;;;24.92;8.95;;;;;;;;;;10390713;28;20037;-75
2023/03/04 03:11:54;;;;;;;56.37;16.27;;;;;;;;;;10421784;28;20049;-75
2023/03/04 03:16:57;;;;;;;22.10;7.33;;;;;;;;;;10398591;28;20050;-76
2023/03/04 03:22:00;;;;;;;39.43;11.27;;;;;;;;;;10399689;28;20054;-77
2023/03/04 03:27:05;;;;;;;55.33;17.60;;;;;;;;;;10394828;28;20064;-77
2023/03/04 03:32:07;;;;;;;;;;;;;;;;;;10396336;28;20037;-77
2023/03/04 03:37:11;;;;;;;49.83;14.27;;;;;;;;;;10398949;28;20000;-76
2023/03/04 03:42:15;;;;;;;55.33;17.53;;;;;;;;;;10394989;28;20399;-76
2023/03/04 03:47:18;;;;;;;27.52;9.98;;;;;;;;;;10398553;28;20069;-76
2023/03/04 03:52:21;;;;;;;20.23;6.50;;;;;;;;;;10395341;28;20049;-75
2023/03/04 03:57:25;;;;;;;53.63;15.53;;;;;;;;;;10398428;28;20041;-77
2023/03/04 04:02:27;;;;;;;48.65;15.90;;;;;;;;;;10394451;28;20053;-77
2023/03/04 04:07:31;;;;;;;33.07;11.70;;;;;;;;;;10404066;28;20083;-77
2023/03/04 04:12:35;;;;;;;39.57;12.23;;;;;;;;;;10401319;28;20839;-77
2023/03/04 04:17:37;;;;;;;25.52;8.63;;;;;;;;;;10395106;28;20111;-76
2023/03/04 04:22:40;;;;;;;25.57;9.63;;;;;;;;;;10401527;28;20034;-76
2023/03/04 04:27:44;;;;;;;27.57;10.03;;;;;;;;;;10402636;28;20515;-76
2023/03/04 04:32:48;;;;;;;26.00;9.83;;;;;;;;;;10393432;28;20040;-76
2023/03/04 04:37:51;;;;;;;23.50;8.87;;;;;;;;;;10390059;28;20120;-76
2023/03/04 04:42:55;;;;;;;24.87;8.40;;;;;;;;;;10392155;28;20418;-77
2023/03/04 04:47:58;;;;;;;49.63;15.37;;;;;;;;;;10395209;28;20029;-77
2023/03/04 04:53:02;;;;;;;20.75;9.27;;;;;;;;;;10410381;28;20086;-77
2023/03/04 04:58:07;;;;;;;57.85;16.90;;;;;;;;;;10395655;28;20091;-76
2023/03/04 05:03:10;;;;;;;36.77;13.03;;;;;;;;;;10390784;28;20470;-76
2023/03/04 05:08:13;;;;;;;58.17;18.87;;;;;;;;;;10404768;28;20040;-77
2023/03/04 05:13:18;;;;;;;18.20;7.37;;;;;;;;;;10403679;28;20125;-76
2023/03/04 05:18:21;;;;;;;41.23;12.63;;;;;;;;;;10403780;28;20060;-77
2023/03/04 05:23:35;;;;;;;53.93;15.50;;;;;;;;;;10407533;28;20068;-76
2023/03/04 05:28:39;;;;;;;45.80;15.10;;;;;;;;;;10401349;28;20491;-77
2023/03/04 05:33:41;;;;;;;15.20;5.10;;;;;;;;;;10396210;28;20033;-77
2023/03/04 05:38:44;;;;;;;42.60;14.40;;;;;;;;;;10397324;28;20037;-77
2023/03/04 05:43:48;;;;;;;24.40;9.00;;;;;;;;;;10396087;28;20355;-76
2023/03/04 05:48:52;;;;;;;41.07;13.03;;;;;;;;;;10400145;28;20121;-75
2023/03/04 05:53:54;;;;;;;46.93;15.17;;;;;;;;;;10406839;28;20487;-75
2023/03/04 05:58:58;;;;;;;27.40;9.07;;;;;;;;;;10394382;28;20514;-75
2023/03/04 06:04:01;;;;;;;15.57;4.93;;;;;;;;;;10398786;28;20514;-75
2023/03/04 06:09:05;;;;;;;43.37;14.47;;;;;;;;;;10410277;28;20037;-76
2023/03/04 06:14:19;;;;;;;29.93;13.40;;;;;;;;;;10391638;28;20037;-77
2023/03/04 06:19:22;;;;;;;61.77;19.23;;;;;;;;;;10401773;28;20499;-76
2023/03/04 06:24:27;;;;;;;33.37;11.63;;;;;;;;;;10404244;28;20049;-76
2023/03/04 06:29:31;;;;;;;25.23;8.73;;;;;;;;;;10401650;28;20045;-76
2023/03/04 06:34:33;;;;;;;52.63;17.85;;;;;;;;;;10407399;28;20044;-76
2023/03/04 06:39:36;;;;;;;47.13;16.37;;;;;;;;;;10402869;28;20037;-76
2023/03/04 06:44:40;;;;;;;47.07;17.27;;;;;;;;;;10403931;28;20039;-75
2023/03/04 06:49:42;;;;;;;44.35;16.98;;;;;;;;;;10398543;28;20097;-76
2023/03/04 06:54:46;;;;;;;41.63;15.98;;;;;;;;;;10411232;28;20033;-76
2023/03/04 06:59:50;;;;;;;21.73;8.82;;;;;;;;;;10399114;28;20050;-77
2023/03/04 07:04:53;;;;;;;32.92;12.68;;;;;;;;;;10403818;28;20091;-78
2023/03/04 07:09:56;;;;;;;40.07;16.83;;;;;;;;;;10399037;28;20136;-77
2023/03/04 07:15:00;;;;;;;38.92;17.02;;;;;;;;;;10402648;28;20492;-76
2023/03/04 07:20:03;;;;;;;42.40;16.05;;;;;;;;;;10405747;28;20038;-77
2023/03/04 07:25:06;;;;;;;27.95;13.50;;;;;;;;;;10402554;28;20041;-77
2023/03/04 07:30:11;;;;;;;37.92;14.65;;;;;;;;;;10395979;28;20560;-77
2023/03/04 07:35:14;;;;;;;38.45;15.38;;;;;;;;;;10395764;28;21457;-78
2023/03/04 07:40:17;;;;;;;31.23;14.57;;;;;;;;;;10395693;28;20045;-79
2023/03/04 07:45:22;;;;;;;34.53;15.52;;;;;;;;;;10392249;28;20049;-77
2023/03/04 07:50:24;;;;;;;37.20;17.70;;;;;;;;;;10396102;28;20046;-78
2023/03/04 07:55:29;;;;;;;39.58;18.77;;;;;;;;;;10390391;28;20492;-77
2023/03/04 08:00:33;;;;;;;39.38;18.38;;;;;;;;;;10392924;28;20507;-77
2023/03/04 08:05:39;;;;;;;40.92;18.08;;;;;;;;;;10393251;28;20045;-76
2023/03/04 08:10:42;;;;;;;38.60;18.35;;;;;;;;;;10399559;28;20045;-76
2023/03/04 08:15:47;;;;;;;42.78;19.92;;;;;;;;;;10391556;28;20114;-77
2023/03/04 08:20:50;;;;;;;;;;;;;;;;;;10396252;28;20051;-76
2023/03/04 08:25:53;;;;;;;41.93;20.27;;;;;;;;;;10393325;28;19921;-77
2023/03/04 08:30:57;;;;;;;35.95;14.75;;;;;;;;;;10395246;28;20038;-77
2023/03/04 08:36:00;;;;;;;36.80;17.88;;;;;;;;;;10384967;28;20049;-78
2023/03/04 08:41:03;;;;;;;38.00;19.35;;;;;;;;;;10400280;28;20402;-75
2023/03/04 08:46:08;;;;;;;37.33;19.33;;;;;;;;;;10386263;28;20052;-77
2023/03/04 08:51:11;;;;;;;37.83;19.92;;;;;;;;;;10387708;28;20797;-77
2023/03/04 08:56:15;;;;;;;39.63;20.35;;;;;;;;;;10395882;28;20384;-78
2023/03/04 09:01:18;;;;;;;;;;;;;;;;;;10391302;28;20069;-77
2023/03/04 09:06:23;;;;;;;36.95;21.27;;;;;;;;;;10401638;28;19920;-76
2023/03/04 09:11:26;;;;;;;36.15;21.85;;;;;;;;;;10403086;28;20046;-76
2023/03/04 09:16:28;;;;;;;;;;;;;;;;;;10408165;28;20447;-76
2023/03/04 09:21:32;;;;;;;35.58;20.48;;;;;;;;;;10401481;28;20087;-78
2023/03/04 09:26:35;;;;;;;38.20;21.30;;;;;;;;;;10400174;28;20050;-78
2023/03/04 09:31:38;;;;;;;35.13;19.60;;;;;;;;;;10403935;28;20406;-76
2023/03/04 09:36:42;;;;;;;35.63;22.52;;;;;;;;;;10395168;28;20041;-78
2023/03/04 09:41:46;;;;;;;35.15;20.55;;;;;;;;;;10403768;28;20040;-80
2023/03/04 09:46:50;;;;;;;34.67;21.02;;;;;;;;;;10403908;28;20038;-79
2023/03/04 09:52:06;;;;;;;34.10;21.92;;;;;;;;;;10401862;28;20045;-79
2023/03/04 09:57:17;;;;;;;30.92;20.45;;;;;;;;;;10410528;28;20038;-79
2023/03/04 10:02:27;;;;;;;33.25;20.90;;;;;;;;;;10396714;28;20547;-78
2023/03/04 10:07:34;;;;;;;28.40;18.98;;;;;;;;;;10396610;28;20056;-78
2023/03/04 10:12:39;;;;;;;33.78;20.80;;;;;;;;;;10394231;28;20494;-80
2023/03/04 10:17:44;;;;;;;33.15;21.73;;;;;;;;;;10405062;28;20089;-79
2023/03/04 10:22:49;;;;;;;34.83;21.92;;;;;;;;;;10406215;28;20137;-77
2023/03/04 10:27:52;;;;;;;33.20;21.05;;;;;;;;;;10419965;28;20075;-77
2023/03/04 10:32:55;;;;;;;33.80;20.73;;;;;;;;;;10404726;28;20121;-78
2023/03/04 10:38:01;;;;;;;30.77;17.98;;;;;;;;;;10404694;28;20045;-78
2023/03/04 10:43:07;;;;;;;28.92;18.50;;;;;;;;;;10429389;28;20045;-79
2023/03/04 10:48:18;;;;;;;41.00;24.92;;;;;;;;;;10401092;28;20034;-78
2023/03/04 10:53:29;;;;;;;28.45;16.50;;;;;;;;;;10402080;28;20056;-79
2023/03/04 10:58:33;;;;;;;26.77;18.13;;;;;;;;;;10407644;28;20739;-78
2023/03/04 11:03:36;;;;;;;29.75;18.60;;;;;;;;;;10403303;28;20057;-78
2023/03/04 11:08:41;;;;;;;28.95;19.33;;;;;;;;;;10395762;28;20124;-78
2023/03/04 11:13:52;;;;;;;32.80;19.90;;;;;;;;;;10396653;28;20498;-77
2023/03/04 11:18:58;;;;;;;29.52;19.63;;;;;;;;;;10404876;28;20049;-78
2023/03/04 11:24:03;;;;;;;31.58;20.33;;;;;;;;;;10396728;28;20498;-78
2023/03/04 11:29:13;;;;;;;31.50;20.85;;;;;;;;;;10399448;28;20049;-78
2023/03/04 11:34:22;;;;;;;32.40;20.35;;;;;;;;;;10398484;28;20049;-78
2023/03/04 11:39:31;;;;;;;30.88;19.65;;;;;;;;;;10403760;28;20080;-78
2023/03/04 11:44:35;;;;;;;29.67;18.73;;;;;;;;;;10398102;28;20030;-77
2023/03/04 11:49:58;;;;;;;29.00;19.88;;;;;;;;;;10394601;28;20058;-77
2023/03/04 11:55:12;;;;;;;28.38;17.38;;;;;;;;;;10392267;28;20566;-78
2023/03/04 12:00:26;;;;;;;29.83;18.88;;;;;;;;;;10394173;28;20076;-78
2023/03/04 12:05:42;;;;;;;31.20;18.30;;;;;;;;;;10404592;28;20122;-78
2023/03/04 12:10:52;;;;;;;32.47;20.00;;;;;;;;;;10388825;28;20042;-78
2023/03/04 12:15:59;;;;;;;30.48;18.90;;;;;;;;;;10395362;28;20037;-77
2023/03/04 12:21:09;;;;;;;33.83;19.65;;;;;;;;;;10393301;28;20164;-78
2023/03/04 12:26:21;;;;;;;31.35;19.08;;;;;;;;;;10388092;28;20109;-77
2023/03/04 12:31:34;;;;;;;30.73;19.53;;;;;;;;;;10394216;28;20152;-78
2023/03/04 12:36:41;;;;;;;26.13;16.88;;;;;;;;;;10391417;28;20098;-78
2023/03/04 12:41:51;;;;;;;30.98;18.15;;;;;;;;;;10393261;28;20463;-78
2023/03/04 12:47:13;;;;;;;28.67;16.60;;;;;;;;;;10396272;28;20033;-79
2023/03/04 12:52:29;;;;;;;28.80;15.55;;;;;;;;;;10389531;28;20057;-78
2023/03/04 12:57:53;;;;;;;26.80;15.30;;;;;;;;;;10384664;28;20034;-78
2023/03/04 13:03:07;;;;;;;25.65;14.27;;;;;;;;;;10389715;28;20187;-80
2023/03/04 13:08:21;;;;;;;25.30;14.05;;;;;;;;;;10394571;28;20061;-78
2023/03/04 13:14:00;;;;;;;25.27;14.32;;;;;;;;;;10388058;28;20053;-78
2023/03/04 13:25:03;;;;;;;26.65;15.02;;;;;;;;;;10387871;28;20049;-79
2023/03/04 13:30:37;;;;;;;24.67;13.52;;;;;;;;;;10395583;28;20135;-79
2023/03/04 13:36:03;;;;;;;25.23;13.82;;;;;;;;;;10390234;28;20054;-78
2023/03/04 13:41:15;;;;;;;24.98;14.32;;;;;;;;;;10378482;28;20046;-79
2023/03/04 13:46:29;;;;;;;26.20;14.25;;;;;;;;;;10398558;28;20491;-78
2023/03/04 13:51:42;;;;;;;26.00;13.52;;;;;;;;;;10398143;28;20049;-78
2023/03/04 13:56:52;;;;;;;24.48;11.55;;;;;;;;;;10401424;28;20325;-79
2023/03/04 14:02:14;;;;;;;24.37;12.77;;;;;;;;;;10399178;28;20045;-79
2023/03/04 14:07:24;;;;;;;27.35;13.32;;;;;;;;;;10408883;28;20045;-79
2023/03/04 14:12:56;;;;;;;27.58;12.77;;;;;;;;;;10396423;28;20128;-79
2023/03/04 14:18:13;;;;;;;26.08;12.05;;;;;;;;;;10398834;28;20048;-78
2023/03/04 14:23:40;;;;;;;27.25;12.10;;;;;;;;;;10403196;28;20751;-79
2023/03/04 14:28:55;;;;;;;22.55;11.00;;;;;;;;;;10382493;28;20446;-78
2023/03/04 14:34:08;;;;;;;24.88;11.48;;;;;;;;;;10403196;28;20057;-80
2023/03/04 14:44:44;;;;;;;23.30;11.05;;;;;;;;;;10412527;28;20041;-80
2023/03/04 14:50:00;;;;;;;25.95;12.05;;;;;;;;;;10400001;28;20117;-81
2023/03/04 14:55:17;;;;;;;24.98;10.13;;;;;;;;;;10392344;28;20144;-78
2023/03/04 15:00:28;;;;;;;19.73;8.05;;;;;;;;;;10400969;28;20124;-78
2023/03/04 15:05:40;;;;;;;21.88;9.52;;;;;;;;;;10400070;28;20041;-77
2023/03/04 15:10:55;;;;;;;19.95;9.07;;;;;;;;;;10394291;28;20052;-78
2023/03/04 15:16:12;;;;;;;22.17;10.13;;;;;;;;;;10399654;28;20041;-76
2023/03/04 15:21:39;;;;;;;21.35;9.63;;;;;;;;;;10400167;28;20045;-79
2023/03/04 15:26:59;;;;;;;25.15;10.40;;;;;;;;;;10403873;28;20052;-78
2023/03/04 15:32:19;;;;;;;22.48;10.43;;;;;;;;;;10399926;28;20199;-77
2023/03/04 15:37:33;;;;;;;20.70;8.60;;;;;;;;;;10415178;28;20034;-77
2023/03/04 15:42:47;;;;;;;24.42;9.27;;;;;;;;;;10399087;28;20040;-77
2023/03/04 15:48:06;;;;;;;21.63;9.02;;;;;;;;;;10411207;28;20048;-77
2023/03/04 15:53:31;;;;;;;23.67;9.80;;;;;;;;;;10408661;28;20533;-78
2023/03/04 15:58:47;;;;;;;20.85;9.25;;;;;;;;;;10410411;28;20053;-78
2023/03/04 16:04:06;;;;;;;25.48;8.90;;;;;;;;;;10411339;28;20103;-79
2023/03/04 16:09:21;;;;;;;24.83;9.32;;;;;;;;;;10396520;28;20041;-77
2023/03/04 16:14:28;;;;;;;20.88;8.23;;;;;;;;;;10402574;28;20045;-77
2023/03/04 16:19:51;;;;;;;22.90;8.75;;;;;;;;;;10409425;28;20475;-77
2023/03/04 16:25:10;;;;;;;24.92;8.68;;;;;;;;;;10407454;28;20041;-77
2023/03/04 16:30:17;;;;;;;23.60;9.73;;;;;;;;;;10400050;28;20037;-79
2023/03/04 16:35:23;;;;;;;26.50;9.32;;;;;;;;;;10403546;28;20042;-77
2023/03/04 16:40:35;;;;;;;23.40;9.23;;;;;;;;;;10404004;28;20518;-78
2023/03/04 16:45:45;;;;;;;24.25;9.40;;;;;;;;;;10402073;28;20481;-78
2023/03/04 16:50:52;;;;;;;31.25;10.55;;;;;;;;;;10411055;28;20206;-78
2023/03/04 16:56:04;;;;;;;24.98;9.82;;;;;;;;;;10398789;28;20140;-78
2023/03/04 17:01:19;;;;;;;24.17;8.30;;;;;;;;;;10405084;28;20041;-78
2023/03/04 17:06:27;;;;;;;20.30;8.60;;;;;;;;;;10402776;28;20049;-78
2023/03/04 17:11:38;;;;;;;23.98;9.15;;;;;;;;;;10399064;28;20057;-79
2023/03/04 17:16:45;;;;;;;25.13;9.60;;;;;;;;;;10410310;28;20128;-76
2023/03/04 17:22:00;;;;;;;24.30;9.05;;;;;;;;;;10405789;28;20060;-78
2023/03/04 17:27:07;;;;;;;27.23;9.25;;;;;;;;;;10402045;28;20038;-76
2023/03/04 17:32:21;;;;;;;27.00;9.27;;;;;;;;;;10405650;28;20064;-78
2023/03/04 17:37:41;;;;;;;24.17;9.73;;;;;;;;;;10384725;28;20124;-78
2023/03/04 17:43:21;;;;;;;28.20;10.90;;;;;;;;;;10407942;28;20630;-78
2023/03/04 17:48:29;;;;;;;23.65;9.00;;;;;;;;;;10408350;28;20130;-78
2023/03/04 17:53:42;;;;;;;29.27;11.05;;;;;;;;;;10403111;28;20056;-78
2023/03/04 17:58:51;;;;;;;30.48;9.27;;;;;;;;;;10399690;28;20036;-78
2023/03/04 18:03:58;;;;;;;23.10;9.50;;;;;;;;;;10398884;28;20425;-78
2023/03/04 18:09:03;;;;;;;28.33;10.23;;;;;;;;;;10408081;28;20034;-77
2023/03/04 18:14:17;;;;;;;23.58;9.23;;;;;;;;;;10393986;28;20045;-77
2023/03/04 18:19:23;;;;;;;27.65;9.93;;;;;;;;;;10410376;28;20287;-76
2023/03/04 18:24:38;;;;;;;26.70;9.95;;;;;;;;;;10405854;28;20048;-77
2023/03/04 18:35:18;;;;;;;28.85;10.75;;;;;;;;;;10410195;28;20065;-77
2023/03/04 18:40:25;;;;;;;27.58;9.85;;;;;;;;;;10401083;28;20045;-82
2023/03/04 18:45:33;;;;;;;25.05;9.98;;;;;;;;;;10392729;28;20123;-78
2023/03/04 18:50:40;;;;;;;20.30;8.13;;;;;;;;;;10396728;28;20057;-78
2023/03/04 18:55:59;;;;;;;26.13;9.85;;;;;;;;;;10405456;28;20124;-77
2023/03/04 19:01:07;;;;;;;25.37;10.27;;;;;;;;;;10400858;28;20561;-78
2023/03/04 19:06:11;;;;;;;30.13;12.13;;;;;;;;;;10410178;28;20154;-78
2023/03/04 19:11:16;;;;;;;32.97;10.50;;;;;;;;;;10408569;28;20041;-77
2023/03/04 19:16:28;;;;;;;26.13;10.40;;;;;;;;;;10396247;28;20053;-75
2023/03/04 19:21:46;;;;;;;27.13;10.10;;;;;;;;;;10408055;28;20049;-77
2023/03/04 19:26:54;;;;;;;27.83;10.43;;;;;;;;;;10401698;28;20124;-77
2023/03/04 19:32:12;;;;;;;27.88;11.07;;;;;;;;;;10402925;28;20379;-78
2023/03/04 19:37:23;;;;;;;28.97;10.87;;;;;;;;;;10399050;28;20037;-78
2023/03/04 19:42:29;;;;;;;22.33;8.83;;;;;;;;;;10415402;28;20046;-78
2023/03/04 19:47:38;;;;;;;26.65;9.98;;;;;;;;;;10407574;28;20042;-79
2023/03/04 19:52:46;;;;;;;30.03;10.37;;;;;;;;;;10401843;28;20553;-78
2023/03/04 19:57:59;;;;;;;29.93;11.00;;;;;;;;;;10400364;28;20435;-77
2023/03/04 20:03:16;;;;;;;22.60;9.10;;;;;;;;;;10403488;28;20037;-77
2023/03/04 20:08:27;;;;;;;28.10;10.30;;;;;;;;;;10403021;28;20048;-78
2023/03/04 20:13:34;;;;;;;30.02;10.07;;;;;;;;;;10401758;28;20057;-78
2023/03/04 20:18:50;;;;;;;18.83;6.47;;;;;;;;;;10400815;28;20037;-78
2023/03/04 20:24:06;;;;;;;24.47;9.80;;;;;;;;;;10406804;28;20117;-78
2023/03/04 20:29:21;;;;;;;16.77;6.67;;;;;;;;;;10389437;28;20034;-78
2023/03/04 20:34:32;;;;;;;12.03;5.20;;;;;;;;;;10412943;28;20044;-79
2023/03/04 20:39:50;;;;;;;31.13;10.53;;;;;;;;;;10408747;28;20481;-80
2023/03/04 20:45:01;;;;;;;31.83;9.73;;;;;;;;;;10406919;28;20041;-79
2023/03/04 20:50:21;;;;;;;23.17;9.40;;;;;;;;;;10409291;28;20084;-78
2023/03/04 20:55:31;;;;;;;28.97;9.63;;;;;;;;;;10420770;28;20081;-81
2023/03/04 21:00:45;;;;;;;25.10;9.30;;;;;;;;;;10426054;28;20060;-78
2023/03/04 21:05:56;;;;;;;27.00;8.77;;;;;;;;;;10419839;28;20057;-77
2023/03/04 21:11:00;;;;;;;23.67;8.57;;;;;;;;;;10414298;28;20095;-77
2023/03/04 21:16:04;;;;;;;;;;;;;;;;;;10420248;28;20053;-78
2023/03/04 21:21:17;;;;;;;26.07;9.83;;;;;;;;;;10408702;28;20333;-78
2023/03/04 21:26:36;;;;;;;20.83;8.13;;;;;;;;;;10409178;28;20040;-78
2023/03/04 21:31:45;;;;;;;25.77;8.00;;;;;;;;;;10400510;28;21809;-79
2023/03/04 21:36:54;;;;;;;20.50;7.60;;;;;;;;;;10403585;28;20041;-78
2023/03/04 21:42:05;;;;;;;15.83;5.27;;;;;;;;;;10390971;28;20136;-78
2023/03/04 21:47:14;;;;;;;25.92;9.30;;;;;;;;;;10403633;28;20041;-79
2023/03/04 21:52:18;;;;;;;9.27;3.40;;;;;;;;;;10397950;28;20064;-77
2023/03/04 21:57:28;;;;;;;16.93;5.37;;;;;;;;;;10402670;28;20065;-78
2023/03/04 22:02:36;;;;;;;18.57;6.00;;;;;;;;;;10399164;28;20050;-79
2023/03/04 22:07:42;;;;;;;14.77;5.53;;;;;;;;;;10403771;28;20052;-79
2023/03/04 22:12:49;;;;;;;30.50;11.70;;;;;;;;;;10402125;28;20042;-79
2023/03/04 22:18:01;;;;;;;28.67;9.27;;;;;;;;;;10400799;28;20034;-80
2023/03/04 22:23:13;;;;;;;25.98;8.93;;;;;;;;;;10402024;28;20601;-81
2023/03/04 22:28:36;;;;;;;18.57;6.00;;;;;;;;;;10398086;28;20052;-81
2023/03/04 22:33:40;;;;;;;11.33;4.17;;;;;;;;;;10398943;28;20052;-81
2023/03/04 22:38:45;;;;;;;11.15;4.50;;;;;;;;;;10399549;28;20029;-81
2023/03/04 22:43:57;;;;;;;18.17;6.57;;;;;;;;;;10397637;28;20061;-81
2023/03/04 22:49:05;;;;;;;31.80;9.20;;;;;;;;;;10395493;28;20125;-82
2023/03/04 22:54:11;;;;;;;34.77;10.43;;;;;;;;;;10400166;28;20045;-81
2023/03/04 22:59:28;;;;;;;24.37;7.93;;;;;;;;;;10393269;28;20118;-78
2023/03/04 23:04:34;;;;;;;26.10;8.43;;;;;;;;;;10399959;28;20569;-79
2023/03/04 23:09:41;;;;;;;32.77;11.27;;;;;;;;;;10394571;28;20053;-78
2023/03/04 23:14:49;;;;;;;21.97;8.93;;;;;;;;;;10397582;28;20124;-79
2023/03/04 23:19:55;;;;;;;12.73;4.90;;;;;;;;;;10394118;28;20037;-80
2023/03/04 23:25:05;;;;;;;27.00;9.30;;;;;;;;;;10397451;28;20052;-78
2023/03/04 23:30:14;;;;;;;21.10;7.07;;;;;;;;;;10396027;28;20124;-80
2023/03/04 23:35:30;;;;;;;23.57;7.33;;;;;;;;;;10395435;28;20041;-79
2023/03/04 23:40:37;;;;;;;19.90;7.07;;;;;;;;;;10391510;28;20420;-80
2023/03/04 23:45:43;;;;;;;24.13;8.60;;;;;;;;;;10398829;28;20038;-80
2023/03/04 23:50:52;;;;;;;12.50;5.00;;;;;;;;;;10396597;28;20130;-79
2023/03/04 23:56:02;;;;;;;19.33;6.97;;;;;;;;;;10403996;28;20055;-79
